sensor_id;sensor_type;location;lat;lon;timestamp;temperature;humidity
6666;DHT22;3369;49.906;8.598;2023-12-28T03:13:51;8.40;99.50
6666;DHT22;3369;49.906;8.598;2023-12-28T03:16:17;8.40;99.60
6666;DHT22;3369;49.906;8.598;2023-12-28T03:18:43;8.40;99.60
6666;DHT22;3369;49.906;8.598;2023-12-28T03:21:08;8.40;99.80
6666;DHT22;3369;49.906;8.598;2023-12-28T03:23:34;8.40;99.90
6666;DHT22;3369;49.906;8.598;2023-12-28T03:26:00;8.30;99.90
6666;DHT22;3369;49.906;8.598;2023-12-28T03:28:26;8.30;99.90
6666;DHT22;3369;49.906;8.598;2023-12-28T03:30:51;8.40;99.90
6666;DHT22;3369;49.906;8.598;2023-12-28T03:33:17;8.30;99.90
6666;DHT22;3369;49.906;8.598;2023-12-28T03:35:42;8.40;99.90
6666;DHT22;3369;49.906;8.598;2023-12-28T03:38:08;8.40;99.90
6666;DHT22;3369;49.906;8.598;2023-12-28T03:40:33;8.40;99.90
6666;DHT22;3369;49.906;8.598;2023-12-28T03:42:59;8.40;99.90
6666;DHT22;3369;49.906;8.598;2023-12-28T03:45:25;8.40;99.90
6666;DHT22;3369;49.906;8.598;2023-12-28T03:47:50;8.30;99.90
6666;DHT22;3369;49.906;8.598;2023-12-28T03:50:16;8.30;99.90
6666;DHT22;3369;49.906;8.598;2023-12-28T03:52:42;8.30;99.90
6666;DHT22;3369;49.906;8.598;2023-12-28T03:55:08;8.30;99.90
6666;DHT22;3369;49.906;8.598;2023-12-28T03:57:33;8.30;99.90
6666;DHT22;3369;49.906;8.598;2023-12-28T03:59:59;8.30;99.90
6666;DHT22;3369;49.906;8.598;2023-12-28T04:02:24;8.30;99.90
6666;DHT22;3369;49.906;8.598;2023-12-28T04:04:52;8.40;99.90
6666;DHT22;3369;49.906;8.598;2023-12-28T04:07:18;8.40;99.90
6666;DHT22;3369;49.906;8.598;2023-12-28T04:09:44;8.30;99.90
6666;DHT22;3369;49.906;8.598;2023-12-28T04:12:09;8.40;99.90
6666;DHT22;3369;49.906;8.598;2023-12-28T04:14:35;8.40;99.90
6666;DHT22;3369;49.906;8.598;2023-12-28T04:17:00;8.40;99.90
6666;DHT22;3369;49.906;8.598;2023-12-28T04:19:26;8.40;99.90
6666;DHT22;3369;49.906;8.598;2023-12-28T04:21:52;8.50;99.90
6666;DHT22;3369;49.906;8.598;2023-12-28T04:24:17;8.50;99.90
6666;DHT22;3369;49.906;8.598;2023-12-28T04:26:43;8.50;99.90
6666;DHT22;3369;49.906;8.598;2023-12-28T04:29:08;8.50;99.90
6666;DHT22;3369;49.906;8.598;2023-12-28T04:31:39;8.60;99.90
6666;DHT22;3369;49.906;8.598;2023-12-28T04:34:06;8.60;99.90
6666;DHT22;3369;49.906;8.598;2023-12-28T04:36:31;8.60;99.90
6666;DHT22;3369;49.906;8.598;2023-12-28T04:38:57;8.70;99.90
6666;DHT22;3369;49.906;8.598;2023-12-28T04:41:22;8.70;99.90
6666;DHT22;3369;49.906;8.598;2023-12-28T04:43:48;8.80;99.90
6666;DHT22;3369;49.906;8.598;2023-12-28T04:46:13;8.80;99.90
6666;DHT22;3369;49.906;8.598;2023-12-28T04:48:39;8.80;99.90
6666;DHT22;3369;49.906;8.598;2023-12-28T04:51:04;8.80;99.90
6666;DHT22;3369;49.906;8.598;2023-12-28T04:53:30;8.80;99.90
6666;DHT22;3369;49.906;8.598;2023-12-28T04:55:56;8.90;99.90
6666;DHT22;3369;49.906;8.598;2023-12-28T04:58:21;8.90;99.90
6666;DHT22;3369;49.906;8.598;2023-12-28T05:00:47;8.80;99.90
6666;DHT22;3369;49.906;8.598;2023-12-28T05:03:13;8.80;99.90
6666;DHT22;3369;49.906;8.598;2023-12-28T05:05:38;8.90;99.90
6666;DHT22;3369;49.906;8.598;2023-12-28T05:08:04;8.90;99.90
6666;DHT22;3369;49.906;8.598;2023-12-28T05:10:30;8.80;99.90
6666;DHT22;3369;49.906;8.598;2023-12-28T05:12:55;8.80;99.90
6666;DHT22;3369;49.906;8.598;2023-12-28T05:15:21;8.80;99.90
6666;DHT22;3369;49.906;8.598;2023-12-28T05:17:46;8.90;99.90
6666;DHT22;3369;49.906;8.598;2023-12-28T05:20:12;8.90;99.90
6666;DHT22;3369;49.906;8.598;2023-12-28T05:22:38;8.90;99.90
6666;DHT22;3369;49.906;8.598;2023-12-28T05:25:03;8.90;99.90
6666;DHT22;3369;49.906;8.598;2023-12-28T05:27:29;8.90;99.90
6666;DHT22;3369;49.906;8.598;2023-12-28T05:29:55;8.90;99.90
6666;DHT22;3369;49.906;8.598;2023-12-28T05:32:20;8.80;99.90
6666;DHT22;3369;49.906;8.598;2023-12-28T05:34:46;8.90;99.90
6666;DHT22;3369;49.906;8.598;2023-12-28T05:37:12;8.80;99.90
6666;DHT22;3369;49.906;8.598;2023-12-28T05:39:38;8.80;99.90
6666;DHT22;3369;49.906;8.598;2023-12-28T05:42:04;8.80;99.90
6666;DHT22;3369;49.906;8.598;2023-12-28T05:44:29;8.80;99.90
6666;DHT22;3369;49.906;8.598;2023-12-28T05:46:55;8.80;99.90
6666;DHT22;3369;49.906;8.598;2023-12-28T05:49:22;8.90;99.90
6666;DHT22;3369;49.906;8.598;2023-12-28T05:51:48;8.90;99.90
6666;DHT22;3369;49.906;8.598;2023-12-28T05:54:13;9.00;99.90
6666;DHT22;3369;49.906;8.598;2023-12-28T05:56:39;9.00;99.90
6666;DHT22;3369;49.906;8.598;2023-12-28T05:59:04;9.00;99.90
6666;DHT22;3369;49.906;8.598;2023-12-28T06:01:30;9.00;99.90
6666;DHT22;3369;49.906;8.598;2023-12-28T06:03:55;9.00;99.90
6666;DHT22;3369;49.906;8.598;2023-12-28T06:06:21;9.00;99.90
6666;DHT22;3369;49.906;8.598;2023-12-28T06:08:47;9.00;99.90
6666;DHT22;3369;49.906;8.598;2023-12-28T06:11:12;9.00;99.90
6666;DHT22;3369;49.906;8.598;2023-12-28T06:13:38;9.00;99.90
6666;DHT22;3369;49.906;8.598;2023-12-28T06:16:04;9.00;99.90
6666;DHT22;3369;49.906;8.598;2023-12-28T06:18:29;9.00;99.90
6666;DHT22;3369;49.906;8.598;2023-12-28T06:20:55;9.10;99.90
6666;DHT22;3369;49.906;8.598;2023-12-28T06:23:20;9.00;99.90
6666;DHT22;3369;49.906;8.598;2023-12-28T06:25:46;9.00;99.90
6666;DHT22;3369;49.906;8.598;2023-12-28T06:28:12;9.00;99.90
6666;DHT22;3369;49.906;8.598;2023-12-28T06:30:37;9.00;99.90
6666;DHT22;3369;49.906;8.598;2023-12-28T06:33:05;9.00;99.90
6666;DHT22;3369;49.906;8.598;2023-12-28T06:35:30;9.00;99.90
6666;DHT22;3369;49.906;8.598;2023-12-28T06:37:56;9.00;99.90
6666;DHT22;3369;49.906;8.598;2023-12-28T06:40:22;9.00;99.90
6666;DHT22;3369;49.906;8.598;2023-12-28T06:42:47;9.00;99.90
6666;DHT22;3369;49.906;8.598;2023-12-28T06:45:13;9.10;99.90
6666;DHT22;3369;49.906;8.598;2023-12-28T06:47:38;9.10;99.90
6666;DHT22;3369;49.906;8.598;2023-12-28T06:50:04;9.00;99.90
6666;DHT22;3369;49.906;8.598;2023-12-28T06:52:30;9.00;99.90
6666;DHT22;3369;49.906;8.598;2023-12-28T06:54:57;9.00;99.90
6666;DHT22;3369;49.906;8.598;2023-12-28T06:57:22;9.10;99.90
6666;DHT22;3369;49.906;8.598;2023-12-28T06:59:48;9.00;99.90
6666;DHT22;3369;49.906;8.598;2023-12-28T07:02:13;9.00;99.90
6666;DHT22;3369;49.906;8.598;2023-12-28T07:04:39;9.00;99.90
6666;DHT22;3369;49.906;8.598;2023-12-28T07:07:04;9.00;99.90
6666;DHT22;3369;49.906;8.598;2023-12-28T07:09:30;9.00;99.90
6666;DHT22;3369;49.906;8.598;2023-12-28T07:11:56;8.90;99.90
6666;DHT22;3369;49.906;8.598;2023-12-28T07:14:21;9.00;99.90
6666;DHT22;3369;49.906;8.598;2023-12-28T07:16:47;9.00;99.90
6666;DHT22;3369;49.906;8.598;2023-12-28T07:19:12;9.00;99.90
6666;DHT22;3369;49.906;8.598;2023-12-28T07:21:38;9.00;99.90
6666;DHT22;3369;49.906;8.598;2023-12-28T07:24:04;9.00;99.90
6666;DHT22;3369;49.906;8.598;2023-12-28T07:26:29;9.00;99.90
6666;DHT22;3369;49.906;8.598;2023-12-28T07:28:55;9.00;99.90
6666;DHT22;3369;49.906;8.598;2023-12-28T07:31:27;9.00;99.90
6666;DHT22;3369;49.906;8.598;2023-12-28T07:33:54;9.00;99.90
6666;DHT22;3369;49.906;8.598;2023-12-28T07:36:20;8.90;99.90
6666;DHT22;3369;49.906;8.598;2023-12-28T07:38:46;9.00;99.90
6666;DHT22;3369;49.906;8.598;2023-12-28T07:41:11;9.00;99.90
6666;DHT22;3369;49.906;8.598;2023-12-28T07:43:37;8.90;99.90
6666;DHT22;3369;49.906;8.598;2023-12-28T07:46:03;8.90;99.90
6666;DHT22;3369;49.906;8.598;2023-12-28T07:48:30;8.90;99.90
6666;DHT22;3369;49.906;8.598;2023-12-28T07:50:56;8.90;99.90
6666;DHT22;3369;49.906;8.598;2023-12-28T07:53:22;8.90;99.90
6666;DHT22;3369;49.906;8.598;2023-12-28T07:55:48;8.90;99.90
6666;DHT22;3369;49.906;8.598;2023-12-28T07:58:14;8.90;99.90
6666;DHT22;3369;49.906;8.598;2023-12-28T08:00:40;8.90;99.90
6666;DHT22;3369;49.906;8.598;2023-12-28T08:03:05;8.80;99.90
6666;DHT22;3369;49.906;8.598;2023-12-28T08:05:31;8.80;99.90
6666;DHT22;3369;49.906;8.598;2023-12-28T08:07:56;8.80;99.90
6666;DHT22;3369;49.906;8.598;2023-12-28T08:10:22;8.70;99.90
6666;DHT22;3369;49.906;8.598;2023-12-28T08:12:47;8.70;99.90
6666;DHT22;3369;49.906;8.598;2023-12-28T08:15:13;8.70;99.90
6666;DHT22;3369;49.906;8.598;2023-12-28T08:17:39;8.70;99.90
6666;DHT22;3369;49.906;8.598;2023-12-28T08:20:05;8.70;99.90
6666;DHT22;3369;49.906;8.598;2023-12-28T08:22:32;8.70;99.90
6666;DHT22;3369;49.906;8.598;2023-12-28T08:24:57;8.70;99.90
6666;DHT22;3369;49.906;8.598;2023-12-28T08:27:23;8.80;99.90
6666;DHT22;3369;49.906;8.598;2023-12-28T08:29:49;8.70;99.90
6666;DHT22;3369;49.906;8.598;2023-12-28T08:32:17;8.70;99.90
6666;DHT22;3369;49.906;8.598;2023-12-28T08:34:43;8.70;99.90
6666;DHT22;3369;49.906;8.598;2023-12-28T08:37:09;8.80;99.90
6666;DHT22;3369;49.906;8.598;2023-12-28T08:39:34;8.70;99.90
6666;DHT22;3369;49.906;8.598;2023-12-28T08:42:00;8.80;99.90
6666;DHT22;3369;49.906;8.598;2023-12-28T08:44:26;8.80;99.90
6666;DHT22;3369;49.906;8.598;2023-12-28T08:46:51;8.80;99.90
6666;DHT22;3369;49.906;8.598;2023-12-28T08:49:17;8.80;99.90
6666;DHT22;3369;49.906;8.598;2023-12-28T08:51:43;8.90;99.90
6666;DHT22;3369;49.906;8.598;2023-12-28T08:54:08;8.90;99.90
6666;DHT22;3369;49.906;8.598;2023-12-28T08:56:35;8.90;99.90
6666;DHT22;3369;49.906;8.598;2023-12-28T08:59:01;8.90;99.90
6666;DHT22;3369;49.906;8.598;2023-12-28T09:01:26;8.90;99.90
6666;DHT22;3369;49.906;8.598;2023-12-28T09:03:53;9.00;99.90
6666;DHT22;3369;49.906;8.598;2023-12-28T09:06:20;9.00;99.90
6666;DHT22;3369;49.906;8.598;2023-12-28T09:08:49;9.00;99.90
6666;DHT22;3369;49.906;8.598;2023-12-28T09:11:16;9.00;99.90
6666;DHT22;3369;49.906;8.598;2023-12-28T09:13:42;9.00;99.90
6666;DHT22;3369;49.906;8.598;2023-12-28T09:16:09;9.00;99.90
6666;DHT22;3369;49.906;8.598;2023-12-28T09:18:36;9.00;99.90
6666;DHT22;3369;49.906;8.598;2023-12-28T09:21:03;9.10;99.90
6666;DHT22;3369;49.906;8.598;2023-12-28T09:23:29;9.10;99.90
6666;DHT22;3369;49.906;8.598;2023-12-28T09:25:54;9.10;99.90
6666;DHT22;3369;49.906;8.598;2023-12-28T09:28:20;9.20;99.90
6666;DHT22;3369;49.906;8.598;2023-12-28T09:30:46;9.20;99.90
6666;DHT22;3369;49.906;8.598;2023-12-28T09:33:11;9.20;99.90
6666;DHT22;3369;49.906;8.598;2023-12-28T09:35:37;9.30;99.90
6666;DHT22;3369;49.906;8.598;2023-12-28T09:38:02;9.30;99.90
6666;DHT22;3369;49.906;8.598;2023-12-28T09:40:28;9.30;99.90
6666;DHT22;3369;49.906;8.598;2023-12-28T09:43:15;9.40;99.90
6666;DHT22;3369;49.906;8.598;2023-12-28T09:45:49;9.40;99.90
6666;DHT22;3369;49.906;8.598;2023-12-28T09:48:19;9.50;99.90
6666;DHT22;3369;49.906;8.598;2023-12-28T09:50:52;9.60;99.90
6666;DHT22;3369;49.906;8.598;2023-12-28T09:53:24;9.60;99.90
6666;DHT22;3369;49.906;8.598;2023-12-28T09:55:50;9.70;99.90
6666;DHT22;3369;49.906;8.598;2023-12-28T09:58:17;9.70;99.90
6666;DHT22;3369;49.906;8.598;2023-12-28T10:00:45;9.80;99.90
6666;DHT22;3369;49.906;8.598;2023-12-28T10:03:15;9.90;99.90
6666;DHT22;3369;49.906;8.598;2023-12-28T10:05:42;10.00;99.90
6666;DHT22;3369;49.906;8.598;2023-12-28T10:08:08;10.00;99.90
6666;DHT22;3369;49.906;8.598;2023-12-28T10:10:34;10.10;99.90
6666;DHT22;3369;49.906;8.598;2023-12-28T10:13:00;10.10;99.90
6666;DHT22;3369;49.906;8.598;2023-12-28T10:15:25;10.10;99.90
6666;DHT22;3369;49.906;8.598;2023-12-28T10:17:54;10.10;99.90
6666;DHT22;3369;49.906;8.598;2023-12-28T10:20:20;10.10;99.90
6666;DHT22;3369;49.906;8.598;2023-12-28T10:22:45;10.10;99.90
6666;DHT22;3369;49.906;8.598;2023-12-28T10:25:11;10.20;99.90
6666;DHT22;3369;49.906;8.598;2023-12-28T10:27:40;10.30;99.90
6666;DHT22;3369;49.906;8.598;2023-12-28T10:30:09;10.20;99.90
6666;DHT22;3369;49.906;8.598;2023-12-28T10:32:41;10.30;99.90
6666;DHT22;3369;49.906;8.598;2023-12-28T10:35:07;10.40;99.90
6666;DHT22;3369;49.906;8.598;2023-12-28T10:37:33;10.40;99.90
6666;DHT22;3369;49.906;8.598;2023-12-28T10:40:05;10.40;99.90
6666;DHT22;3369;49.906;8.598;2023-12-28T10:42:57;10.30;99.90
6666;DHT22;3369;49.906;8.598;2023-12-28T10:45:25;10.30;99.90
6666;DHT22;3369;49.906;8.598;2023-12-28T10:50:27;10.10;99.90
6666;DHT22;3369;49.906;8.598;2023-12-28T10:53:14;10.10;99.90
6666;DHT22;3369;49.906;8.598;2023-12-28T10:58:38;10.20;99.90
6666;DHT22;3369;49.906;8.598;2023-12-28T11:01:07;10.10;99.90
6666;DHT22;3369;49.906;8.598;2023-12-28T11:03:37;10.00;99.90
6666;DHT22;3369;49.906;8.598;2023-12-28T11:06:07;10.00;99.90
6666;DHT22;3369;49.906;8.598;2023-12-28T11:08:34;9.90;99.90
6666;DHT22;3369;49.906;8.598;2023-12-28T11:11:01;9.90;99.90
6666;DHT22;3369;49.906;8.598;2023-12-28T11:13:30;9.80;99.90
6666;DHT22;3369;49.906;8.598;2023-12-28T11:15:58;9.70;99.90
6666;DHT22;3369;49.906;8.598;2023-12-28T11:18:25;9.70;99.90
6666;DHT22;3369;49.906;8.598;2023-12-28T11:20:54;9.60;99.90
6666;DHT22;3369;49.906;8.598;2023-12-28T11:23:20;9.60;99.90
6666;DHT22;3369;49.906;8.598;2023-12-28T11:25:45;9.60;99.90
6666;DHT22;3369;49.906;8.598;2023-12-28T11:28:12;9.70;99.90
6666;DHT22;3369;49.906;8.598;2023-12-28T11:30:38;9.70;99.90
6666;DHT22;3369;49.906;8.598;2023-12-28T11:33:07;9.80;99.90
6666;DHT22;3369;49.906;8.598;2023-12-28T11:35:37;10.00;99.90
6666;DHT22;3369;49.906;8.598;2023-12-28T11:38:05;10.10;99.90
6666;DHT22;3369;49.906;8.598;2023-12-28T11:40:41;10.30;99.90
6666;DHT22;3369;49.906;8.598;2023-12-28T11:43:19;10.50;99.90
6666;DHT22;3369;49.906;8.598;2023-12-28T11:45:55;10.70;99.90
6666;DHT22;3369;49.906;8.598;2023-12-28T11:48:27;10.90;99.90
6666;DHT22;3369;49.906;8.598;2023-12-28T11:50:58;11.00;99.90
6666;DHT22;3369;49.906;8.598;2023-12-28T11:53:24;11.00;99.90
6666;DHT22;3369;49.906;8.598;2023-12-28T11:55:50;10.90;99.90
6666;DHT22;3369;49.906;8.598;2023-12-28T11:58:17;10.90;99.90
6666;DHT22;3369;49.906;8.598;2023-12-28T12:00:43;10.70;99.90
6666;DHT22;3369;49.906;8.598;2023-12-28T12:03:13;10.60;99.90
6666;DHT22;3369;49.906;8.598;2023-12-28T12:05:39;10.60;99.90
6666;DHT22;3369;49.906;8.598;2023-12-28T12:08:06;10.80;99.90
6666;DHT22;3369;49.906;8.598;2023-12-28T12:10:34;10.90;99.90
6666;DHT22;3369;49.906;8.598;2023-12-28T12:13:00;11.00;99.90
6666;DHT22;3369;49.906;8.598;2023-12-28T12:15:28;11.10;99.90
6666;DHT22;3369;49.906;8.598;2023-12-28T12:17:54;11.20;99.90
6666;DHT22;3369;49.906;8.598;2023-12-28T12:20:20;11.30;99.90
6666;DHT22;3369;49.906;8.598;2023-12-28T12:22:46;11.40;99.90
6666;DHT22;3369;49.906;8.598;2023-12-28T12:25:12;11.50;99.90
6666;DHT22;3369;49.906;8.598;2023-12-28T12:27:37;11.50;99.90
6666;DHT22;3369;49.906;8.598;2023-12-28T12:30:06;11.40;99.90
6666;DHT22;3369;49.906;8.598;2023-12-28T12:32:32;11.30;99.90
6666;DHT22;3369;49.906;8.598;2023-12-28T12:34:58;11.20;99.90
6666;DHT22;3369;49.906;8.598;2023-12-28T12:37:24;11.10;99.90
6666;DHT22;3369;49.906;8.598;2023-12-28T12:39:50;11.10;99.90
6666;DHT22;3369;49.906;8.598;2023-12-28T12:42:15;11.10;99.90
6666;DHT22;3369;49.906;8.598;2023-12-28T12:44:42;11.00;99.90
6666;DHT22;3369;49.906;8.598;2023-12-28T12:47:08;11.10;99.90
6666;DHT22;3369;49.906;8.598;2023-12-28T12:49:33;11.00;99.90
6666;DHT22;3369;49.906;8.598;2023-12-28T12:52:00;10.90;99.90
6666;DHT22;3369;49.906;8.598;2023-12-28T12:54:26;10.80;99.90
6666;DHT22;3369;49.906;8.598;2023-12-28T12:56:54;10.70;99.90
6666;DHT22;3369;49.906;8.598;2023-12-28T12:59:20;10.80;99.90
6666;DHT22;3369;49.906;8.598;2023-12-28T13:01:45;10.80;99.90
6666;DHT22;3369;49.906;8.598;2023-12-28T13:04:14;10.80;99.90
6666;DHT22;3369;49.906;8.598;2023-12-28T13:06:41;10.80;99.90
6666;DHT22;3369;49.906;8.598;2023-12-28T13:09:07;10.70;99.90
6666;DHT22;3369;49.906;8.598;2023-12-28T13:11:36;10.70;99.90
6666;DHT22;3369;49.906;8.598;2023-12-28T13:14:02;10.80;99.90
6666;DHT22;3369;49.906;8.598;2023-12-28T13:16:27;10.80;99.90
6666;DHT22;3369;49.906;8.598;2023-12-28T13:18:53;10.80;99.90
6666;DHT22;3369;49.906;8.598;2023-12-28T13:21:19;10.70;99.90
6666;DHT22;3369;49.906;8.598;2023-12-28T13:23:44;10.70;99.90
6666;DHT22;3369;49.906;8.598;2023-12-28T13:26:10;10.60;99.90
6666;DHT22;3369;49.906;8.598;2023-12-28T13:28:35;10.60;99.90
6666;DHT22;3369;49.906;8.598;2023-12-28T13:31:01;10.60;99.90
6666;DHT22;3369;49.906;8.598;2023-12-28T13:33:27;10.50;99.90
6666;DHT22;3369;49.906;8.598;2023-12-28T13:35:53;10.50;99.90
6666;DHT22;3369;49.906;8.598;2023-12-28T13:38:18;10.50;99.90
6666;DHT22;3369;49.906;8.598;2023-12-28T13:40:44;10.40;99.90
6666;DHT22;3369;49.906;8.598;2023-12-28T13:43:10;10.30;99.90
6666;DHT22;3369;49.906;8.598;2023-12-28T13:45:35;10.30;99.90
6666;DHT22;3369;49.906;8.598;2023-12-28T13:48:01;10.20;99.90
6666;DHT22;3369;49.906;8.598;2023-12-28T13:50:28;10.10;99.90
6666;DHT22;3369;49.906;8.598;2023-12-28T13:52:54;9.90;99.90
6666;DHT22;3369;49.906;8.598;2023-12-28T13:55:19;9.90;99.90
6666;DHT22;3369;49.906;8.598;2023-12-28T13:57:45;9.80;99.90
6666;DHT22;3369;49.906;8.598;2023-12-28T14:00:11;9.70;99.90
6666;DHT22;3369;49.906;8.598;2023-12-28T14:02:37;9.70;99.90
6666;DHT22;3369;49.906;8.598;2023-12-28T14:05:03;9.70;99.90
6666;DHT22;3369;49.906;8.598;2023-12-28T14:07:28;9.60;99.90
6666;DHT22;3369;49.906;8.598;2023-12-28T14:09:54;9.60;99.90
6666;DHT22;3369;49.906;8.598;2023-12-28T14:12:20;9.50;99.90
6666;DHT22;3369;49.906;8.598;2023-12-28T14:14:45;9.60;99.90
6666;DHT22;3369;49.906;8.598;2023-12-28T14:17:11;9.50;99.90
6666;DHT22;3369;49.906;8.598;2023-12-28T14:19:36;9.50;99.90
6666;DHT22;3369;49.906;8.598;2023-12-28T14:22:02;9.50;99.90
6666;DHT22;3369;49.906;8.598;2023-12-28T14:24:28;9.50;99.90
6666;DHT22;3369;49.906;8.598;2023-12-28T14:26:55;9.60;99.90
6666;DHT22;3369;49.906;8.598;2023-12-28T14:29:21;9.60;99.90
6666;DHT22;3369;49.906;8.598;2023-12-28T14:31:47;9.70;99.90
6666;DHT22;3369;49.906;8.598;2023-12-28T14:34:13;9.70;99.90
6666;DHT22;3369;49.906;8.598;2023-12-28T14:36:39;9.70;99.90
6666;DHT22;3369;49.906;8.598;2023-12-28T14:39:07;9.70;99.90
6666;DHT22;3369;49.906;8.598;2023-12-28T14:41:36;9.70;99.90
6666;DHT22;3369;49.906;8.598;2023-12-28T14:44:02;9.70;99.90
6666;DHT22;3369;49.906;8.598;2023-12-28T14:46:28;9.70;99.90
6666;DHT22;3369;49.906;8.598;2023-12-28T14:48:55;9.70;99.90
6666;DHT22;3369;49.906;8.598;2023-12-28T14:51:21;9.60;99.90
6666;DHT22;3369;49.906;8.598;2023-12-28T14:53:47;9.60;99.90
6666;DHT22;3369;49.906;8.598;2023-12-28T14:56:13;9.50;99.90
6666;DHT22;3369;49.906;8.598;2023-12-28T14:58:40;9.40;99.90
6666;DHT22;3369;49.906;8.598;2023-12-28T15:01:10;9.40;99.90
6666;DHT22;3369;49.906;8.598;2023-12-28T15:03:35;9.40;99.90
6666;DHT22;3369;49.906;8.598;2023-12-28T15:06:04;9.40;99.90
6666;DHT22;3369;49.906;8.598;2023-12-28T15:08:29;9.40;99.90
6666;DHT22;3369;49.906;8.598;2023-12-28T15:10:56;9.30;99.90
6666;DHT22;3369;49.906;8.598;2023-12-28T15:13:22;9.30;99.90
6666;DHT22;3369;49.906;8.598;2023-12-28T15:15:48;9.30;99.90
6666;DHT22;3369;49.906;8.598;2023-12-28T15:18:16;9.30;99.90
6666;DHT22;3369;49.906;8.598;2023-12-28T15:20:44;9.30;99.90
6666;DHT22;3369;49.906;8.598;2023-12-28T15:23:10;9.30;99.90
6666;DHT22;3369;49.906;8.598;2023-12-28T15:25:35;9.30;99.90
6666;DHT22;3369;49.906;8.598;2023-12-28T15:28:01;9.30;99.90
6666;DHT22;3369;49.906;8.598;2023-12-28T15:30:27;9.30;99.90
6666;DHT22;3369;49.906;8.598;2023-12-28T15:32:52;9.30;99.90
6666;DHT22;3369;49.906;8.598;2023-12-28T15:35:18;9.30;99.90
6666;DHT22;3369;49.906;8.598;2023-12-28T15:37:43;9.30;99.90
6666;DHT22;3369;49.906;8.598;2023-12-28T15:40:10;9.30;99.90
6666;DHT22;3369;49.906;8.598;2023-12-28T15:42:36;9.30;99.90
6666;DHT22;3369;49.906;8.598;2023-12-28T15:45:02;9.40;99.90
6666;DHT22;3369;49.906;8.598;2023-12-28T15:47:28;9.30;99.90
6666;DHT22;3369;49.906;8.598;2023-12-28T15:49:54;9.30;99.90
6666;DHT22;3369;49.906;8.598;2023-12-28T15:52:20;9.30;99.90
6666;DHT22;3369;49.906;8.598;2023-12-28T15:54:45;9.30;99.90
6666;DHT22;3369;49.906;8.598;2023-12-28T15:57:11;9.20;99.90
6666;DHT22;3369;49.906;8.598;2023-12-28T15:59:37;9.20;99.90
6666;DHT22;3369;49.906;8.598;2023-12-28T16:02:02;9.30;99.90
6666;DHT22;3369;49.906;8.598;2023-12-28T16:04:28;9.30;99.90
6666;DHT22;3369;49.906;8.598;2023-12-28T16:06:54;9.30;99.90
6666;DHT22;3369;49.906;8.598;2023-12-28T16:09:21;9.20;99.90
6666;DHT22;3369;49.906;8.598;2023-12-28T16:11:46;9.20;99.90
6666;DHT22;3369;49.906;8.598;2023-12-28T16:14:12;9.10;99.90
6666;DHT22;3369;49.906;8.598;2023-12-28T16:16:38;9.10;99.90
6666;DHT22;3369;49.906;8.598;2023-12-28T16:19:04;9.00;99.90
6666;DHT22;3369;49.906;8.598;2023-12-28T16:21:31;9.00;99.90
6666;DHT22;3369;49.906;8.598;2023-12-28T16:23:57;8.90;99.90
6666;DHT22;3369;49.906;8.598;2023-12-28T16:26:23;8.90;99.90
6666;DHT22;3369;49.906;8.598;2023-12-28T16:28:49;8.90;99.90
6666;DHT22;3369;49.906;8.598;2023-12-28T16:31:18;8.80;99.90
6666;DHT22;3369;49.906;8.598;2023-12-28T16:33:44;8.80;99.90
6666;DHT22;3369;49.906;8.598;2023-12-28T16:36:09;8.70;99.90
6666;DHT22;3369;49.906;8.598;2023-12-28T16:38:35;8.70;99.90
6666;DHT22;3369;49.906;8.598;2023-12-28T16:41:01;8.70;99.90
6666;DHT22;3369;49.906;8.598;2023-12-28T16:43:28;8.70;99.90
6666;DHT22;3369;49.906;8.598;2023-12-28T16:45:55;8.70;99.90
6666;DHT22;3369;49.906;8.598;2023-12-28T16:48:21;8.70;99.90
6666;DHT22;3369;49.906;8.598;2023-12-28T16:50:46;8.60;99.90
6666;DHT22;3369;49.906;8.598;2023-12-28T16:53:12;8.60;99.90
6666;DHT22;3369;49.906;8.598;2023-12-28T16:55:39;8.60;99.90
6666;DHT22;3369;49.906;8.598;2023-12-28T16:58:04;8.60;99.90
6666;DHT22;3369;49.906;8.598;2023-12-28T17:00:30;8.60;99.90
6666;DHT22;3369;49.906;8.598;2023-12-28T17:02:56;8.60;99.90
6666;DHT22;3369;49.906;8.598;2023-12-28T17:05:22;8.50;99.90
6666;DHT22;3369;49.906;8.598;2023-12-28T17:07:52;8.50;99.90
6666;DHT22;3369;49.906;8.598;2023-12-28T17:10:18;8.60;99.90
6666;DHT22;3369;49.906;8.598;2023-12-28T17:12:44;8.60;99.90
6666;DHT22;3369;49.906;8.598;2023-12-28T17:15:12;8.50;99.90
6666;DHT22;3369;49.906;8.598;2023-12-28T17:17:40;8.50;99.90
6666;DHT22;3369;49.906;8.598;2023-12-28T17:20:07;8.50;99.90
6666;DHT22;3369;49.906;8.598;2023-12-28T17:22:45;8.50;99.90
6666;DHT22;3369;49.906;8.598;2023-12-28T17:25:44;8.40;99.90
6666;DHT22;3369;49.906;8.598;2023-12-28T17:28:14;8.40;99.90
6666;DHT22;3369;49.906;8.598;2023-12-28T17:30:44;8.40;99.90
6666;DHT22;3369;49.906;8.598;2023-12-28T17:33:12;8.40;99.90
6666;DHT22;3369;49.906;8.598;2023-12-28T17:35:39;8.30;99.90
6666;DHT22;3369;49.906;8.598;2023-12-28T17:38:05;8.30;99.90
6666;DHT22;3369;49.906;8.598;2023-12-28T17:40:31;8.30;99.90
6666;DHT22;3369;49.906;8.598;2023-12-28T17:43:00;8.20;99.90
6666;DHT22;3369;49.906;8.598;2023-12-28T17:48:45;8.20;99.90
6666;DHT22;3369;49.906;8.598;2023-12-28T17:51:14;8.20;99.90
6666;DHT22;3369;49.906;8.598;2023-12-28T17:53:40;8.20;99.90
6666;DHT22;3369;49.906;8.598;2023-12-28T17:56:06;8.20;99.90
6666;DHT22;3369;49.906;8.598;2023-12-28T17:58:32;8.20;99.90
6666;DHT22;3369;49.906;8.598;2023-12-28T18:00:58;8.20;99.90
6666;DHT22;3369;49.906;8.598;2023-12-28T18:03:23;8.20;99.90
6666;DHT22;3369;49.906;8.598;2023-12-28T18:05:52;8.10;99.90
6666;DHT22;3369;49.906;8.598;2023-12-28T18:08:17;8.10;99.90
6666;DHT22;3369;49.906;8.598;2023-12-28T18:10:43;8.20;99.90
6666;DHT22;3369;49.906;8.598;2023-12-28T18:13:09;8.10;99.90
6666;DHT22;3369;49.906;8.598;2023-12-28T18:15:35;8.00;99.90
6666;DHT22;3369;49.906;8.598;2023-12-28T18:18:00;8.00;99.90
6666;DHT22;3369;49.906;8.598;2023-12-28T18:20:26;8.00;99.90
6666;DHT22;3369;49.906;8.598;2023-12-28T18:22:52;8.00;99.90
6666;DHT22;3369;49.906;8.598;2023-12-28T18:25:17;8.00;99.90
6666;DHT22;3369;49.906;8.598;2023-12-28T18:27:43;7.90;99.90
6666;DHT22;3369;49.906;8.598;2023-12-28T18:30:09;8.00;99.90
6666;DHT22;3369;49.906;8.598;2023-12-28T18:32:35;8.00;99.90
6666;DHT22;3369;49.906;8.598;2023-12-28T18:35:01;7.90;99.90
6666;DHT22;3369;49.906;8.598;2023-12-28T18:37:27;7.90;99.90
6666;DHT22;3369;49.906;8.598;2023-12-28T18:39:53;8.00;99.90
6666;DHT22;3369;49.906;8.598;2023-12-28T18:42:19;7.90;99.90
6666;DHT22;3369;49.906;8.598;2023-12-28T18:44:45;8.00;99.90
6666;DHT22;3369;49.906;8.598;2023-12-28T18:47:11;8.00;99.90
6666;DHT22;3369;49.906;8.598;2023-12-28T18:49:37;8.00;99.90
6666;DHT22;3369;49.906;8.598;2023-12-28T18:52:03;7.90;99.90
6666;DHT22;3369;49.906;8.598;2023-12-28T18:54:30;7.90;99.90
6666;DHT22;3369;49.906;8.598;2023-12-28T18:56:56;8.00;99.90
6666;DHT22;3369;49.906;8.598;2023-12-28T18:59:22;8.00;99.90
6666;DHT22;3369;49.906;8.598;2023-12-28T19:01:49;8.00;99.90
6666;DHT22;3369;49.906;8.598;2023-12-28T19:04:17;8.00;99.90
6666;DHT22;3369;49.906;8.598;2023-12-28T19:06:43;8.10;99.90
6666;DHT22;3369;49.906;8.598;2023-12-28T19:09:09;8.10;99.90
6666;DHT22;3369;49.906;8.598;2023-12-28T19:11:35;8.10;99.90
6666;DHT22;3369;49.906;8.598;2023-12-28T19:14:01;8.10;99.90
6666;DHT22;3369;49.906;8.598;2023-12-28T19:16:27;8.10;99.90
6666;DHT22;3369;49.906;8.598;2023-12-28T19:18:53;8.10;99.90
6666;DHT22;3369;49.906;8.598;2023-12-28T19:21:20;8.20;99.90
6666;DHT22;3369;49.906;8.598;2023-12-28T19:23:47;8.20;99.90
6666;DHT22;3369;49.906;8.598;2023-12-28T19:26:13;8.20;99.90
6666;DHT22;3369;49.906;8.598;2023-12-28T19:28:40;8.20;99.90
6666;DHT22;3369;49.906;8.598;2023-12-28T19:31:05;8.20;99.90